Time;durP1;ratioP1;P1;durP2;ratioP2;P2;SDS_P1;SDS_P2;PMS_P1;PMS_P2;Temp;Humidity;BMP_temperature;BMP_pressure;BME280_temperature;BME280_humidity;BME280_pressure;Samples;Min_cycle;Max_cycle;Signal;HPM_P1;HPM_P2
2022/03/20 00:00:55;;;;;;;82.03;42.67;;;;;;;-2.20;74.79;101535.28;2082296;28;20543;-73
2022/03/20 00:01:56;;;;;;;73.88;40.97;;;;;;;-2.16;74.05;101539.25;2081372;28;20605;-72
2022/03/20 00:02:59;;;;;;;82.05;42.20;;;;;;;-2.18;74.33;101541.19;2081501;28;20246;-72
2022/03/20 00:04:01;;;;;;;81.35;42.03;;;;;;;-2.19;75.10;101542.16;2082221;28;20202;-72
2022/03/20 00:05:03;;;;;;;81.82;41.50;;;;;;;-2.19;74.80;101542.16;2082111;28;20188;-72
2022/03/20 00:06:05;;;;;;;74.05;41.40;;;;;;;-2.23;75.66;101527.75;2081798;28;20713;-73
2022/03/20 00:07:11;;;;;;;77.63;42.03;;;;;;;-2.20;75.45;101543.13;2082004;28;20234;-72
2022/03/20 00:08:14;;;;;;;80.07;40.25;;;;;;;-2.21;76.39;101536.25;2081401;28;20361;-72
2022/03/20 00:09:16;;;;;;;70.18;39.20;;;;;;;-2.17;77.79;101534.97;2073702;28;20756;-72
2022/03/20 00:10:20;;;;;;;73.93;40.58;;;;;;;-2.17;77.18;101537.59;2081548;28;20271;-72
2022/03/20 00:11:22;;;;;;;72.93;39.70;;;;;;;-2.17;76.92;101535.81;2081673;28;20290;-73
2022/03/20 00:12:26;;;;;;;83.13;38.87;;;;;;;-2.17;76.65;101540.19;2081458;28;20195;-72
2022/03/20 00:13:28;;;;;;;70.32;39.65;;;;;;;-2.19;nan;101540.34;2081682;28;20196;-72
2022/03/20 00:14:30;;;;;;;78.30;39.65;;;;;;;-2.24;76.71;101537.41;2073293;28;20709;-72
2022/03/20 00:15:32;;;;;;;66.93;38.38;;;;;;;-2.22;76.94;101545.06;2081367;28;20233;-72
2022/03/20 00:16:36;;;;;;;70.68;37.78;;;;;;;-2.23;76.31;101546.06;2073499;28;20291;-72
2022/03/20 00:17:38;;;;;;;71.07;38.28;;;;;;;-2.27;77.97;101533.25;2073775;28;20204;-72
2022/03/20 00:18:40;;;;;;;77.30;39.40;;;;;;;-2.26;77.15;101544.53;2081514;28;20262;-73
2022/03/20 00:19:41;;;;;;;73.50;37.72;;;;;;;-2.29;77.05;101543.06;2081763;28;20740;-72
2022/03/20 00:20:45;;;;;;;67.03;37.55;;;;;;;-2.30;76.70;101553.69;2081405;28;20219;-73
2022/03/20 00:21:47;;;;;;;79.28;39.28;;;;;;;-2.35;76.35;101546.25;2080685;28;20223;-72
2022/03/20 00:22:49;;;;;;;74.90;39.00;;;;;;;-2.37;76.38;101548.22;2081620;28;20195;-72
2022/03/20 00:23:52;;;;;;;76.10;39.00;;;;;;;-2.39;76.80;101546.72;2081959;28;20203;-73
2022/03/20 00:24:54;;;;;;;71.38;38.30;;;;;;;-2.40;76.57;101552.94;2082059;28;20238;-73
2022/03/20 00:25:58;;;;;;;71.68;37.63;;;;;;;-2.44;76.76;101552.41;2082068;28;20184;-72
2022/03/20 00:27:00;;;;;;;65.20;38.58;;;;;;;-2.48;76.86;101551.06;2081215;28;20210;-72
2022/03/20 00:28:06;;;;;;;77.65;38.47;;;;;;;-2.49;76.78;101551.22;2073738;28;20295;-72
2022/03/20 00:29:08;;;;;;;70.40;40.13;;;;;;;-2.55;76.90;101547.41;2081627;28;20251;-72
2022/03/20 00:30:11;;;;;;;72.70;39.35;;;;;;;-2.56;76.99;101549.19;2081303;28;20685;-73
2022/03/20 00:31:14;;;;;;;68.10;38.25;;;;;;;-2.59;77.33;101548.69;2081475;28;20650;-72
2022/03/20 00:32:20;;;;;;;73.55;38.30;;;;;;;-2.61;77.53;101540.16;2082122;28;20196;-73
2022/03/20 00:33:22;;;;;;;72.82;38.65;;;;;;;-2.64;77.89;101543.06;2081963;28;20211;-72
2022/03/20 00:34:24;;;;;;;76.13;41.03;;;;;;;-2.67;78.09;101536.34;2082599;28;20208;-72
2022/03/20 00:35:26;;;;;;;73.70;38.65;;;;;;;-2.69;77.94;101534.88;2074884;28;20192;-72
2022/03/20 00:36:31;;;;;;;73.22;39.15;;;;;;;-2.71;78.16;101544.63;2074767;28;20228;-72
2022/03/20 00:37:33;;;;;;;77.72;39.72;;;;;;;-2.74;78.65;101537.09;2083141;28;20164;-72
2022/03/20 00:38:36;;;;;;;75.15;39.53;;;;;;;-2.76;79.08;101547.69;2083175;28;20290;-72
2022/03/20 00:39:39;;;;;;;77.22;40.08;;;;;;;-2.79;79.36;101544.53;2083198;28;20189;-73
2022/03/20 00:40:41;;;;;;;74.07;39.63;;;;;;;-2.82;79.65;101537.81;2083641;28;20195;-72
2022/03/20 00:41:43;;;;;;;74.03;39.60;;;;;;;-2.82;80.29;101552.69;2083588;28;20230;-72
2022/03/20 00:42:46;;;;;;;74.43;39.92;;;;;;;-2.85;80.09;101533.72;2083635;28;20188;-72
2022/03/20 00:43:47;;;;;;;73.93;40.13;;;;;;;-2.84;79.76;101537.16;2083537;28;20200;-72
2022/03/20 00:44:50;;;;;;;75.15;40.33;;;;;;;-2.83;79.66;101551.03;2083190;28;20234;-72
2022/03/20 00:45:53;;;;;;;82.72;40.35;;;;;;;-2.86;79.50;101547.75;2082603;28;20203;-72
2022/03/20 00:46:56;;;;;;;78.30;40.55;;;;;;;-2.89;79.51;101545.41;2083028;28;20564;-72
2022/03/20 00:48:01;;;;;;;76.80;40.70;;;;;;;-2.91;79.65;101547.38;2083823;28;20210;-72
2022/03/20 00:49:03;;;;;;;69.78;38.65;;;;;;;-2.91;80.23;101534.31;2083176;28;20204;-73
2022/03/20 00:50:05;;;;;;;73.05;38.47;;;;;;;-2.92;80.40;101547.53;2074867;28;20209;-72
2022/03/20 00:51:10;;;;;;;76.63;40.63;;;;;;;-2.98;80.32;101530.63;2082469;28;20235;-72
2022/03/20 00:52:13;;;;;;;74.90;39.92;;;;;;;-3.00;80.65;101532.56;2083522;28;20704;-72
2022/03/20 00:53:16;;;;;;;75.35;40.60;;;;;;;-2.99;81.41;101533.41;2082814;28;20207;-72
2022/03/20 00:54:17;;;;;;;76.95;39.42;;;;;;;-3.02;81.96;101531.91;2075091;28;20204;-72
2022/03/20 00:55:22;;;;;;;74.13;39.17;;;;;;;-3.02;81.77;101531.91;2082851;28;20198;-72
2022/03/20 00:56:23;;;;;;;89.00;40.63;;;;;;;-3.04;81.64;101531.25;2083728;28;20253;-73
2022/03/20 00:57:25;;;;;;;71.63;38.97;;;;;;;-3.06;81.90;101525.31;2083705;28;20191;-72
2022/03/20 00:58:28;;;;;;;77.68;41.10;;;;;;;-3.09;81.87;101528.22;2083091;28;20199;-72
2022/03/20 00:59:30;;;;;;;78.28;42.20;;;;;;;-3.11;82.23;101527.56;2074950;28;20295;-72
2022/03/20 01:00:33;;;;;;;80.35;40.83;;;;;;;-3.09;82.51;101538.69;2082679;28;20748;-72
2022/03/20 01:01:34;;;;;;;75.78;40.35;;;;;;;-3.10;82.97;101544.03;2082722;28;20204;-73
2022/03/20 01:02:39;;;;;;;76.97;40.60;;;;;;;-3.11;82.99;101548.44;2074840;28;20274;-72
2022/03/20 01:03:45;;;;;;;78.78;41.03;;;;;;;-3.12;82.73;101541.59;2083040;28;20191;-72
2022/03/20 01:04:48;;;;;;;76.25;40.15;;;;;;;-3.09;83.58;101540.47;2083605;28;20172;-72
2022/03/20 01:05:50;;;;;;;84.47;42.05;;;;;;;-3.14;83.63;101544.31;2082853;28;20564;-73
2022/03/20 01:06:55;;;;;;;81.40;40.70;;;;;;;-3.16;83.37;101540.22;2083380;28;20184;-72
2022/03/20 01:07:59;;;;;;;78.55;40.50;;;;;;;-3.20;83.69;101538.88;2082596;28;20215;-72
2022/03/20 01:08:59;;;;;;;86.95;41.78;;;;;;;-3.20;83.97;101538.88;2074993;28;20211;-72
2022/03/20 01:10:04;;;;;;;76.23;40.23;;;;;;;-3.24;83.36;101543.53;2082869;28;20215;-72
2022/03/20 01:11:05;;;;;;;73.53;40.35;;;;;;;-3.25;83.80;101541.09;2083294;28;20198;-72
2022/03/20 01:12:09;;;;;;;80.47;40.33;;;;;;;-3.27;83.88;101537.81;2082642;28;20551;-73
2022/03/20 01:13:12;;;;;;;79.93;40.53;;;;;;;-3.26;84.00;101544.66;2074835;28;20270;-72
2022/03/20 01:14:13;;;;;;;71.95;39.72;;;;;;;-3.30;83.30;101540.69;2074760;28;20205;-72
2022/03/20 01:15:15;;;;;;;76.70;40.90;;;;;;;-3.29;83.80;101537.13;2074309;28;20196;-73
2022/03/20 01:16:16;;;;;;;81.00;41.70;;;;;;;-3.32;83.63;101535.63;2074522;28;20196;-73
2022/03/20 01:17:18;;;;;;;77.72;40.60;;;;;;;-3.34;83.52;101526.28;2082112;28;20208;-72
2022/03/20 01:18:21;;;;;;;72.80;39.08;;;;;;;-3.32;83.80;101526.97;2082900;28;20203;-72
2022/03/20 01:19:28;;;;;;;76.57;40.17;;;;;;;-3.33;83.29;101527.94;2082622;28;20188;-72
2022/03/20 01:20:31;;;;;;;82.25;40.42;;;;;;;-3.36;83.38;101531.66;2082714;28;20310;-72
2022/03/20 01:21:32;;;;;;;77.75;39.90;;;;;;;-3.37;83.68;101526.59;2082315;28;20246;-73
2022/03/20 01:22:34;;;;;;;80.82;40.53;;;;;;;-3.42;84.11;101520.00;2082820;28;20678;-72
2022/03/20 01:23:38;;;;;;;80.22;41.10;;;;;;;-3.41;85.83;101513.81;2074419;28;20203;-72
2022/03/20 01:24:41;;;;;;;78.25;39.47;;;;;;;-3.43;86.22;101522.75;2082676;28;20202;-72
2022/03/20 01:25:43;;;;;;;72.95;39.30;;;;;;;-3.44;86.91;101521.94;2082474;28;20238;-73
2022/03/20 01:26:45;;;;;;;68.13;37.92;;;;;;;-3.44;87.04;101519.34;2082583;28;20641;-72
2022/03/20 01:27:47;;;;;;;74.10;39.95;;;;;;;-3.44;87.25;101528.94;2082707;28;20674;-73
2022/03/20 01:28:49;;;;;;;68.68;39.05;;;;;;;-3.45;87.26;101516.88;2074672;28;20215;-72
2022/03/20 01:29:53;;;;;;;83.38;39.58;;;;;;;-3.46;88.38;101515.22;2073982;28;20196;-72
2022/03/20 01:30:55;;;;;;;72.90;38.63;;;;;;;-3.47;88.79;101510.97;2074954;28;20205;-73
2022/03/20 01:31:57;;;;;;;79.25;39.58;;;;;;;-3.50;91.92;101499.03;2082664;28;20570;-72
2022/03/20 01:32:59;;;;;;;76.22;40.15;;;;;;;-3.45;93.11;101509.88;2083094;28;20642;-72
2022/03/20 01:34:02;;;;;;;77.32;39.45;;;;;;;-3.42;92.82;101520.00;2083099;28;20529;-73
2022/03/20 01:35:06;;;;;;;72.00;39.42;;;;;;;-3.43;92.62;101518.38;2083145;28;20215;-72
2022/03/20 01:36:08;;;;;;;77.55;39.20;;;;;;;-3.44;92.26;101524.56;2081884;28;20219;-72
2022/03/20 01:37:10;;;;;;;78.43;39.88;;;;;;;-3.47;92.16;101530.06;2074649;28;20236;-72
2022/03/20 01:38:19;;;;;;;74.78;39.15;;;;;;;-3.47;91.88;101526.63;2082633;28;20187;-72
2022/03/20 01:39:22;;;;;;;74.00;38.90;;;;;;;-3.50;91.77;101534.72;2082437;28;20286;-73
2022/03/20 01:40:26;;;;;;;73.72;40.50;;;;;;;-3.49;91.52;101531.97;2082593;28;20195;-72
2022/03/20 01:41:28;;;;;;;74.40;39.72;;;;;;;-3.52;91.60;101542.72;2083046;28;20194;-72
2022/03/20 01:42:31;;;;;;;76.03;39.58;;;;;;;-3.53;91.62;101542.84;2082212;28;20266;-73
2022/03/20 01:43:38;;;;;;;72.00;39.80;;;;;;;-3.56;91.22;101538.75;2082425;28;20196;-72
2022/03/20 01:44:40;;;;;;;71.28;37.75;;;;;;;-3.57;90.71;101541.47;2082350;28;20203;-73
2022/03/20 01:45:42;;;;;;;66.65;37.33;;;;;;;-3.58;90.89;101540.66;2081325;28;20678;-72
2022/03/20 01:46:44;;;;;;;72.40;38.55;;;;;;;-3.58;90.31;101542.44;2082399;28;20234;-72
2022/03/20 01:47:49;;;;;;;68.57;38.50;;;;;;;-3.57;90.10;101542.31;2082302;28;20211;-73
2022/03/20 01:48:51;;;;;;;75.85;39.08;;;;;;;-3.57;89.43;101542.31;2083030;28;20696;-72
2022/03/20 01:49:54;;;;;;;74.28;39.25;;;;;;;-3.56;88.90;101543.97;2082551;28;20211;-72
2022/03/20 01:50:56;;;;;;;74.47;39.38;;;;;;;-3.58;88.62;101539.84;2081664;28;20211;-72
2022/03/20 01:52:24;;;;;;;71.65;38.50;;;;;;;-3.58;88.19;101543.28;2082594;28;20210;-72
2022/03/20 01:53:27;;;;;;;68.88;37.67;;;;;;;-3.61;87.93;101540.97;2082999;28;20706;-72
2022/03/20 01:54:30;;;;;;;77.63;40.00;;;;;;;-3.60;87.94;101534.78;2082990;28;20600;-72
2022/03/20 01:55:32;;;;;;;73.65;38.58;;;;;;;-3.61;87.39;101530.53;2082496;28;20223;-72
2022/03/20 01:56:34;;;;;;;71.00;39.22;;;;;;;-3.60;87.58;101542.59;2082378;28;20315;-73
2022/03/20 01:57:39;;;;;;;78.28;39.30;;;;;;;-3.62;87.63;101539.31;2082967;28;20310;-72
2022/03/20 01:58:41;;;;;;;68.15;36.80;;;;;;;-3.64;87.53;101535.22;2082945;28;20188;-72
2022/03/20 01:59:42;;;;;;;74.25;38.92;;;;;;;-3.64;88.00;101537.81;2082350;28;20203;-72
2022/03/20 02:00:46;;;;;;;66.47;38.75;;;;;;;-3.66;88.06;101537.94;2082594;28;20230;-72
2022/03/20 02:01:48;;;;;;;69.38;38.00;;;;;;;-3.69;88.50;101527.81;2082285;28;20642;-72
2022/03/20 02:02:51;;;;;;;70.30;39.83;;;;;;;-3.71;88.69;101527.94;2074104;28;20219;-72
2022/03/20 02:03:53;;;;;;;69.38;38.85;;;;;;;-3.70;89.11;101533.97;2082166;28;20662;-72
2022/03/20 02:04:55;;;;;;;69.40;38.25;;;;;;;-3.69;88.94;101530.41;2082297;28;20310;-72
2022/03/20 02:06:00;;;;;;;69.75;38.85;;;;;;;-3.71;89.19;101527.13;2081707;28;20556;-72
2022/03/20 02:07:03;;;;;;;74.82;39.05;;;;;;;-3.72;89.42;101528.09;2082383;28;20183;-72
2022/03/20 02:08:06;;;;;;;66.97;38.03;;;;;;;-3.72;89.48;101535.91;2082704;28;20682;-72
2022/03/20 02:09:08;;;;;;;69.50;37.30;;;;;;;-3.77;89.38;101531.13;2082567;28;20210;-72
2022/03/20 02:10:12;;;;;;;70.47;38.95;;;;;;;-3.75;89.86;101536.19;2082225;28;20258;-72
2022/03/20 02:11:14;;;;;;;74.68;38.10;;;;;;;-3.80;90.29;101536.63;2082404;28;20198;-72
2022/03/20 02:12:18;;;;;;;76.85;39.58;;;;;;;-3.80;90.52;101530.59;2082163;28;20199;-72
2022/03/20 02:13:20;;;;;;;73.25;39.35;;;;;;;-3.82;90.79;101532.50;2074463;28;20645;-73
2022/03/20 02:14:23;;;;;;;70.78;39.95;;;;;;;-3.87;91.38;101524.28;2082340;28;20188;-72
2022/03/20 02:15:26;;;;;;;72.85;38.13;;;;;;;-3.90;91.82;101528.00;2082887;28;20244;-72
2022/03/20 02:16:31;;;;;;;71.07;38.50;;;;;;;-3.90;92.83;101530.63;2082232;28;20207;-72
2022/03/20 02:17:34;;;;;;;71.28;38.80;;;;;;;-3.91;93.23;101533.34;2082157;28;20204;-72
2022/03/20 02:18:36;;;;;;;77.85;39.72;;;;;;;-3.91;93.25;101535.94;2082452;28;20290;-72
2022/03/20 02:19:41;;;;;;;73.88;37.83;;;;;;;-3.95;93.31;101529.38;2082491;28;20183;-72
2022/03/20 02:20:45;;;;;;;69.78;38.17;;;;;;;-3.96;93.37;101533.78;2083109;28;20658;-73
2022/03/20 02:21:50;;;;;;;81.20;40.08;;;;;;;-3.95;93.12;101534.59;2082716;28;20239;-72
2022/03/20 02:22:56;;;;;;;69.85;38.92;;;;;;;-4.00;93.32;101530.63;2082427;28;20200;-72
2022/03/20 02:24:00;;;;;;;68.18;38.40;;;;;;;-3.98;93.36;101535.72;2082538;28;20198;-72
2022/03/20 02:25:08;;;;;;;70.65;38.63;;;;;;;-3.99;93.78;101534.06;2082276;28;20210;-72
2022/03/20 02:26:10;;;;;;;69.38;38.55;;;;;;;-4.03;93.90;101528.28;2082494;28;20282;-72
2022/03/20 02:27:12;;;;;;;72.85;38.15;;;;;;;-4.03;94.27;101530.91;2082892;28;20191;-72
2022/03/20 02:28:16;;;;;;;72.93;38.38;;;;;;;-4.03;94.04;101525.69;2082944;28;20532;-72
2022/03/20 02:29:19;;;;;;;75.88;38.97;;;;;;;-4.04;93.99;101529.25;2082047;28;20211;-72
2022/03/20 02:30:23;;;;;;;77.93;38.33;;;;;;;-4.05;94.02;101526.78;2074184;28;20279;-72
2022/03/20 02:31:25;;;;;;;71.72;37.50;;;;;;;-4.07;93.85;101529.53;2074072;28;20208;-72
2022/03/20 02:32:30;;;;;;;63.78;37.13;;;;;;;-4.06;93.74;101525.97;2081918;28;20199;-72
2022/03/20 02:33:33;;;;;;;70.93;38.10;;;;;;;-4.08;93.67;101527.91;2082466;28;20176;-73
2022/03/20 02:34:34;;;;;;;80.55;38.05;;;;;;;-4.08;93.94;101522.69;2082990;28;20590;-72
2022/03/20 02:35:38;;;;;;;71.85;38.78;;;;;;;-4.12;93.61;101520.50;2081969;28;20196;-72
2022/03/20 02:36:39;;;;;;;65.50;37.17;;;;;;;-4.13;93.95;101524.88;2081850;28;20585;-72
2022/03/20 02:37:46;;;;;;;65.45;37.30;;;;;;;-4.13;94.16;101519.66;2082856;28;20183;-72
2022/03/20 02:38:48;;;;;;;62.28;37.30;;;;;;;-4.13;94.77;101511.03;2082711;28;20184;-72
2022/03/20 02:39:51;;;;;;;67.68;36.25;;;;;;;-4.14;95.42;101523.25;2082689;28;20199;-72
2022/03/20 02:40:54;;;;;;;70.50;37.75;;;;;;;-4.15;95.67;101516.38;2082600;28;20202;-72
2022/03/20 02:41:57;;;;;;;65.70;36.20;;;;;;;-4.13;96.96;101511.84;2082713;28;20191;-72
2022/03/20 02:43:03;;;;;;;66.88;36.78;;;;;;;-4.11;98.25;101509.91;2082820;28;20196;-72
2022/03/20 02:44:07;;;;;;;65.20;36.03;;;;;;;-4.11;98.24;101511.69;2081923;28;20207;-72
2022/03/20 02:45:12;;;;;;;68.97;36.33;;;;;;;-4.09;98.19;101514.97;2082092;28;20187;-72
2022/03/20 02:46:14;;;;;;;61.55;36.90;;;;;;;-4.06;98.08;101518.16;2081687;28;20223;-72
2022/03/20 02:47:22;;;;;;;69.57;36.75;;;;;;;-4.09;98.35;101514.97;2081881;28;20200;-73
2022/03/20 02:48:24;;;;;;;67.07;35.75;;;;;;;-4.06;98.09;101517.34;2074972;28;20243;-72
2022/03/20 02:49:30;;;;;;;71.88;37.95;;;;;;;-4.07;97.89;101520.91;2082283;28;20199;-72
2022/03/20 02:50:33;;;;;;;59.70;36.13;;;;;;;-4.08;97.86;101516.66;2082257;28;20199;-72
2022/03/20 02:51:36;;;;;;;64.13;36.20;;;;;;;-4.10;97.79;101513.34;2081686;28;20277;-72
2022/03/20 02:52:47;;;;;;;64.53;36.47;;;;;;;-4.05;98.31;101521.56;2082622;28;20192;-72
2022/03/20 02:53:49;;;;;;;64.40;36.33;;;;;;;-4.00;98.99;101515.00;2081913;28;20294;-72
2022/03/20 02:54:52;;;;;;;65.63;36.67;;;;;;;-3.98;98.98;101514.84;2081961;28;20582;-72
2022/03/20 02:55:56;;;;;;;67.13;36.22;;;;;;;-3.98;98.13;101517.44;2082319;28;20203;-72
2022/03/20 02:56:58;;;;;;;63.42;36.05;;;;;;;-3.99;97.72;101519.25;2082095;28;20195;-72
2022/03/20 02:58:02;;;;;;;69.70;37.08;;;;;;;-3.96;98.27;101525.13;2082563;28;20192;-72
2022/03/20 02:59:05;;;;;;;68.07;37.13;;;;;;;-3.95;98.54;101524.16;2082570;28;20854;-72
2022/03/20 03:00:08;;;;;;;70.63;36.20;;;;;;;-3.99;98.63;101521.84;2081741;28;20202;-72
2022/03/20 03:01:10;;;;;;;59.20;35.33;;;;;;;-4.02;98.55;101527.31;2081933;28;20218;-72
2022/03/20 03:02:13;;;;;;;71.40;37.08;;;;;;;-4.06;98.45;101525.97;2082444;28;20194;-72
2022/03/20 03:03:17;;;;;;;64.68;35.55;;;;;;;-4.07;98.09;101532.16;2082697;28;20187;-72
2022/03/20 03:04:22;;;;;;;63.40;35.10;;;;;;;-4.08;98.33;101527.09;2082089;28;20269;-72
2022/03/20 03:05:27;;;;;;;66.50;36.90;;;;;;;-4.11;97.98;101528.16;2081940;28;20342;-72
2022/03/20 03:06:28;;;;;;;72.60;36.13;;;;;;;-4.11;98.04;101528.16;2081675;28;20262;-72
2022/03/20 03:10:55;;;;;;;62.95;36.05;;;;;;;-4.14;97.95;101527.63;2081885;28;20187;-72
2022/03/20 03:11:36;;;;;;;64.13;35.28;;;;;;;-4.17;97.79;101523.53;2082098;28;20204;-72
2022/03/20 03:12:39;;;;;;;64.20;35.40;;;;;;;-4.17;98.03;101518.31;2081906;28;20616;-72
2022/03/20 03:13:42;;;;;;;70.57;36.55;;;;;;;-4.17;98.42;101518.31;2081648;28;20674;-72
2022/03/20 03:16:11;;;;;;;58.83;35.65;;;;;;;-4.20;98.53;101523.78;2076604;28;20572;-72
2022/03/20 03:17:13;;;;;;;62.55;35.03;;;;;;;-4.20;98.70;101521.19;2081872;28;20585;-72
2022/03/20 03:18:20;;;;;;;65.50;36.17;;;;;;;-4.18;98.42;101519.25;2082360;28;20211;-72
2022/03/20 03:19:23;;;;;;;61.47;35.35;;;;;;;-4.18;98.52;101519.25;2081713;28;20646;-72
2022/03/20 03:20:26;;;;;;;70.15;36.17;;;;;;;-4.22;99.01;101514.47;2073991;28;20211;-72
2022/03/20 03:21:27;;;;;;;65.78;36.83;;;;;;;-4.18;99.55;101518.44;2073672;28;20603;-72
2022/03/20 03:22:30;;;;;;;64.13;35.03;;;;;;;-4.16;100.00;101516.53;2073950;28;20200;-73
2022/03/20 03:23:36;;;;;;;66.28;35.60;;;;;;;-4.16;100.00;101508.72;2082000;28;20199;-72
2022/03/20 03:24:39;;;;;;;59.53;34.70;;;;;;;-4.16;100.00;101508.72;2082493;28;20238;-72
2022/03/20 03:25:41;;;;;;;62.13;36.72;;;;;;;-4.16;100.00;101516.53;2082551;28;20283;-72
2022/03/20 03:26:44;;;;;;;59.17;35.42;;;;;;;-4.13;100.00;101516.25;2081551;28;20230;-72
2022/03/20 03:27:46;;;;;;;62.53;35.58;;;;;;;-4.11;100.00;101519.53;2073320;28;20637;-72
2022/03/20 03:28:47;;;;;;;60.20;35.03;;;;;;;-4.12;100.00;101523.09;2081572;28;20235;-72
2022/03/20 03:29:50;;;;;;;68.05;36.22;;;;;;;-4.13;100.00;101519.66;2081672;28;20257;-72
2022/03/20 03:30:51;;;;;;;57.78;34.28;;;;;;;-4.09;100.00;101513.19;2081747;28;20230;-72
2022/03/20 03:31:53;;;;;;;58.40;34.70;;;;;;;-4.09;100.00;101517.59;2082536;28;20215;-72
2022/03/20 03:32:57;;;;;;;56.75;34.50;;;;;;;-4.09;100.00;101520.19;2081799;28;20775;-72
2022/03/20 03:36:39;;;;;;;63.50;34.38;;;;;;;-4.12;100.00;101521.31;2081985;28;20222;-72
2022/03/20 03:37:41;;;;;;;62.50;33.95;;;;;;;-4.12;100.00;101518.69;2081925;28;20283;-72
2022/03/20 03:38:46;;;;;;;61.53;34.38;;;;;;;-4.14;100.00;101518.03;2081708;28;20556;-73
2022/03/20 03:39:50;;;;;;;57.28;33.30;;;;;;;-4.14;100.00;101517.22;2082198;28;20204;-72
2022/03/20 03:40:52;;;;;;;61.42;35.05;;;;;;;-4.12;100.00;101516.09;2082338;28;20206;-71
2022/03/20 03:41:54;;;;;;;66.32;34.67;;;;;;;-4.08;100.00;101522.69;2082231;28;20195;-73
2022/03/20 03:42:57;;;;;;;56.25;33.60;;;;;;;-4.07;100.00;101524.34;2081431;28;20208;-72
2022/03/20 03:43:58;;;;;;;58.17;34.13;;;;;;;-4.06;100.00;101525.16;2081865;28;20191;-72
2022/03/20 03:45:02;;;;;;;60.00;33.28;;;;;;;-4.04;100.00;101529.25;2082192;28;20215;-72
2022/03/20 03:46:04;;;;;;;62.10;34.28;;;;;;;-4.00;100.00;101528.03;2081908;28;20260;-72
2022/03/20 03:47:08;;;;;;;58.15;33.75;;;;;;;-3.96;100.00;101527.75;2082260;28;20204;-72
2022/03/20 03:48:09;;;;;;;61.97;33.92;;;;;;;-3.97;99.83;101523.50;2081695;28;20246;-72
2022/03/20 03:49:12;;;;;;;58.65;32.53;;;;;;;-4.01;99.29;101528.97;2073294;28;20200;-72
2022/03/20 03:50:14;;;;;;;58.80;32.75;;;;;;;-4.06;99.24;101525.16;2081273;28;20204;-72
2022/03/20 03:51:16;;;;;;;55.90;33.13;;;;;;;-4.10;98.99;101534.19;2080879;28;20224;-72
2022/03/20 03:52:19;;;;;;;61.58;34.40;;;;;;;-4.11;99.74;101528.16;2073418;28;20200;-72
2022/03/20 03:53:24;;;;;;;62.45;34.47;;;;;;;-4.12;100.00;101531.72;2073848;28;20310;-73
2022/03/20 03:54:26;;;;;;;60.22;33.85;;;;;;;-4.15;100.00;101533.81;2081415;28;20207;-72
2022/03/20 03:55:30;;;;;;;53.97;33.63;;;;;;;-4.16;100.00;101533.00;2081503;28;20654;-72
2022/03/20 03:56:33;;;;;;;57.40;33.42;;;;;;;-4.18;100.00;101536.66;2082092;28;20203;-72
2022/03/20 03:57:36;;;;;;;63.35;33.45;;;;;;;-4.21;100.00;101532.56;2081997;28;20282;-72
2022/03/20 03:58:38;;;;;;;51.85;33.13;;;;;;;-4.16;100.00;101534.78;2082076;28;20188;-72
2022/03/20 03:59:41;;;;;;;68.07;34.22;;;;;;;-4.18;100.00;101532.28;2082082;28;20199;-72
2022/03/20 04:00:44;;;;;;;61.42;34.92;;;;;;;-4.24;100.00;101527.66;2082097;28;20648;-72
2022/03/20 04:01:47;;;;;;;65.22;35.38;;;;;;;-4.25;100.00;101531.22;2082043;28;20713;-73
2022/03/20 04:02:50;;;;;;;64.05;35.10;;;;;;;-4.28;100.00;101529.69;2082004;28;20195;-72
2022/03/20 04:03:51;;;;;;;59.53;35.38;;;;;;;-4.28;100.00;101521.88;2081377;28;20207;-73
2022/03/20 04:04:54;;;;;;;60.95;34.08;;;;;;;-4.26;100.00;101524.34;2081489;28;20195;-72
2022/03/20 04:05:58;;;;;;;62.58;35.35;;;;;;;-4.30;100.00;101526.41;2080961;28;20214;-72
2022/03/20 04:07:02;;;;;;;66.72;36.70;;;;;;;-4.31;100.00;101529.16;2081667;28;20168;-72
2022/03/20 04:08:07;;;;;;;66.38;37.00;;;;;;;-4.33;100.00;101528.47;2081969;28;20196;-72
2022/03/20 04:09:09;;;;;;;71.05;37.10;;;;;;;-4.33;100.00;101526.69;2081085;28;20329;-72
2022/03/20 04:10:11;;;;;;;65.03;35.00;;;;;;;-4.34;100.00;101527.66;2081353;28;20638;-72
2022/03/20 04:11:14;;;;;;;65.00;36.45;;;;;;;-4.35;100.00;101525.16;2081458;28;20292;-72
2022/03/20 04:12:18;;;;;;;65.40;37.10;;;;;;;-4.35;100.00;101522.56;2081843;28;20204;-72
2022/03/20 04:13:21;;;;;;;59.67;36.20;;;;;;;-4.38;100.00;101526.28;2082050;28;20199;-72
2022/03/20 04:14:22;;;;;;;67.15;35.90;;;;;;;-4.41;100.00;101523.13;2082009;28;20245;-72
2022/03/20 04:15:25;;;;;;;69.72;37.33;;;;;;;-4.41;100.00;101528.34;2081248;28;20199;-72
2022/03/20 04:16:26;;;;;;;65.82;36.40;;;;;;;-4.37;100.00;101533.13;2081404;28;20195;-73
2022/03/20 04:17:29;;;;;;;71.38;37.33;;;;;;;-4.39;100.00;101529.84;2082037;28;20218;-73
2022/03/20 04:18:31;;;;;;;65.30;37.72;;;;;;;-4.37;100.00;101527.09;2082017;28;20219;-73
2022/03/20 04:19:32;;;;;;;69.00;37.60;;;;;;;-4.36;100.00;101528.72;2081567;28;20207;-72
2022/03/20 04:20:35;;;;;;;69.67;37.03;;;;;;;-4.36;100.00;101534.75;2081542;28;20215;-72
2022/03/20 04:21:37;;;;;;;66.38;36.83;;;;;;;-4.37;100.00;101532.31;2081592;28;20615;-72
2022/03/20 04:23:42;;;;;;;65.97;38.05;;;;;;;-4.40;100.00;101532.59;2081260;28;20195;-72
2022/03/20 04:24:04;;;;;;;59.80;35.25;;;;;;;-4.41;100.00;101533.56;2081387;28;20240;-72
2022/03/20 04:25:07;;;;;;;66.55;36.17;;;;;;;-4.43;100.00;101546.72;2081186;28;20207;-72
2022/03/20 04:26:08;;;;;;;65.55;36.47;;;;;;;-4.45;100.00;101546.00;2081424;28;20662;-72
2022/03/20 04:27:14;;;;;;;63.20;36.05;;;;;;;-4.46;100.00;101543.56;2082244;28;20211;-72
2022/03/20 04:28:17;;;;;;;69.35;36.47;;;;;;;-4.47;100.00;101541.91;2081531;28;20290;-72
2022/03/20 04:29:20;;;;;;;65.28;36.50;;;;;;;-4.50;100.00;101543.00;2081586;28;20261;-72
2022/03/20 04:30:22;;;;;;;69.07;35.90;;;;;;;-4.50;100.00;101542.19;2081245;28;20250;-72
2022/03/20 04:31:24;;;;;;;63.90;35.08;;;;;;;-4.49;100.00;101543.84;2081521;28;20205;-74
2022/03/20 04:32:26;;;;;;;59.30;35.70;;;;;;;-4.49;100.00;101539.44;2081055;28;20203;-72
2022/03/20 04:33:31;;;;;;;65.95;35.25;;;;;;;-4.50;100.00;101550.81;2073334;28;20535;-72
2022/03/20 04:34:34;;;;;;;70.22;37.13;;;;;;;-4.53;100.00;101558.91;2081420;28;20203;-72
2022/03/20 04:35:37;;;;;;;64.70;35.97;;;;;;;-4.52;100.00;101550.13;2081276;28;20278;-72
2022/03/20 04:36:40;;;;;;;71.43;35.67;;;;;;;-4.56;100.00;101549.56;2073145;28;20224;-72
2022/03/20 04:37:44;;;;;;;66.88;36.50;;;;;;;-4.56;100.00;101553.97;2073507;28;20208;-71
2022/03/20 04:38:47;;;;;;;62.60;36.28;;;;;;;-4.59;100.00;101549.03;2081304;28;20196;-72
2022/03/20 04:39:49;;;;;;;74.43;36.00;;;;;;;-4.61;100.00;101546.53;2081910;28;20195;-73
2022/03/20 04:40:54;;;;;;;66.05;36.10;;;;;;;-4.63;100.00;101545.03;2082147;28;20250;-72
2022/03/20 04:41:58;;;;;;;66.47;37.03;;;;;;;-4.64;100.00;101546.81;2082120;28;20199;-72
2022/03/20 04:43:01;;;;;;;59.85;35.20;;;;;;;-4.66;100.00;101559.16;2082010;28;20227;-72
2022/03/20 04:44:03;;;;;;;61.95;36.75;;;;;;;-4.68;100.00;101544.66;2081548;28;20203;-73
2022/03/20 04:45:06;;;;;;;64.65;36.25;;;;;;;-4.68;100.00;101548.06;2081538;28;20719;-73
2022/03/20 04:46:09;;;;;;;64.22;35.35;;;;;;;-4.68;100.00;101550.69;2081214;28;20595;-73
2022/03/20 04:59:09;;;;;;;67.60;35.17;;;;;;;-4.74;100.00;101566.84;2081252;28;20186;-72
2022/03/20 05:00:14;;;;;;;70.35;36.03;;;;;;;-4.73;100.00;101567.66;2081302;28;20191;-72
2022/03/20 05:01:16;;;;;;;64.65;35.85;;;;;;;-4.72;100.00;101569.28;2081926;28;20191;-72
2022/03/20 05:02:19;;;;;;;70.90;36.65;;;;;;;-4.73;100.00;101571.06;2081966;28;20270;-72
2022/03/20 05:03:20;;;;;;;77.72;38.28;;;;;;;-4.73;100.00;101568.47;2081147;28;20703;-72
2022/03/20 05:04:24;;;;;;;66.45;36.15;;;;;;;-4.73;100.00;101568.47;2081293;28;20279;-72
2022/03/20 05:05:28;;;;;;;63.30;34.92;;;;;;;-4.70;100.00;101572.59;2082030;28;20575;-72